Time;durP1;ratioP1;P1;durP2;ratioP2;P2;SDS_P1;SDS_P2;PMS_P1;PMS_P2;Temp;Humidity;BMP_temperature;BMP_pressure;BME280_temperature;BME280_humidity;BME280_pressure;Samples;Min_cycle;Max_cycle;Signal;HPM_P1;HPM_P2
2022/03/20 00:01:00;;;;;;;33.87;19.53;;;1.90;99.90;;;;;;10444639;28;20293;-79
2022/03/20 00:06:22;;;;;;;40.73;21.80;;;2.00;99.90;;;;;;10409202;28;20206;-79
2022/03/20 00:11:44;;;;;;;41.67;21.87;;;;;;;;;;10409604;28;20305;-80
2022/03/20 00:17:06;;;;;;;38.43;20.10;;;2.10;99.90;;;;;;10381926;28;20266;-81
2022/03/20 00:22:28;;;;;;;40.90;21.67;;;2.10;99.90;;;;;;10394801;28;20281;-80
2022/03/20 00:27:50;;;;;;;38.53;22.20;;;2.10;99.90;;;;;;10367755;28;20399;-80
2022/03/20 00:33:12;;;;;;;40.50;22.30;;;2.00;99.90;;;;;;10381410;28;20224;-82
2022/03/20 00:38:34;;;;;;;36.50;20.93;;;2.10;99.90;;;;;;10394117;28;20243;-79
2022/03/20 00:43:56;;;;;;;39.13;22.27;;;2.10;99.90;;;;;;10367318;28;20210;-80
2022/03/20 00:49:19;;;;;;;40.50;22.73;;;2.10;99.90;;;;;;10394293;28;20191;-79
2022/03/20 00:54:41;;;;;;;40.73;22.37;;;2.10;99.90;;;;;;10374253;28;20203;-81
2022/03/20 01:00:06;;;;;;;42.07;23.20;;;2.10;99.90;;;;;;10427536;28;20237;-80
2022/03/20 01:05:28;;;;;;;48.07;23.93;;;2.10;99.90;;;;;;10407907;28;20250;-81
2022/03/20 01:10:50;;;;;;;44.90;25.00;;;2.20;99.90;;;;;;10394068;28;20516;-79
2022/03/20 01:16:12;;;;;;;43.30;25.17;;;2.20;99.90;;;;;;10395293;28;20416;-79
2022/03/20 01:21:34;;;;;;;38.40;23.23;;;2.10;99.90;;;;;;10407044;28;20307;-80
2022/03/20 01:26:57;;;;;;;41.53;22.43;;;2.20;99.90;;;;;;10366827;28;20206;-82
2022/03/20 01:32:19;;;;;;;40.77;23.47;;;2.20;99.90;;;;;;10380136;28;20276;-81
2022/03/20 01:37:43;;;;;;;40.77;23.40;;;2.20;99.90;;;;;;10393972;28;20202;-79
2022/03/20 01:43:05;;;;;;;43.97;24.00;;;2.20;99.90;;;;;;10393582;28;20234;-81
2022/03/20 01:48:27;;;;;;;42.43;23.83;;;2.10;99.90;;;;;;10395337;28;20207;-81
2022/03/20 01:53:49;;;;;;;39.50;23.13;;;2.10;99.90;;;;;;10404526;28;20200;-81
2022/03/20 01:59:12;;;;;;;41.30;23.97;;;2.10;99.90;;;;;;10406360;28;20222;-81
2022/03/20 02:04:36;;;;;;;40.53;23.63;;;2.10;99.90;;;;;;10359218;28;20205;-80
2022/03/20 02:09:58;;;;;;;40.63;23.57;;;2.00;99.90;;;;;;10360661;28;20269;-81
2022/03/20 02:15:20;;;;;;;40.07;22.07;;;1.90;99.90;;;;;;10358757;28;20253;-81
2022/03/20 02:20:47;;;;;;;42.33;23.87;;;1.80;99.90;;;;;;10400631;28;20575;-80
2022/03/20 02:26:09;;;;;;;45.93;25.13;;;1.80;99.90;;;;;;10385900;28;20205;-80
2022/03/20 02:31:31;;;;;;;42.07;23.67;;;1.70;99.90;;;;;;10399142;28;20510;-81
2022/03/20 02:36:55;;;;;;;40.60;23.73;;;1.80;99.90;;;;;;10385376;28;20223;-78
2022/03/20 02:42:17;;;;;;;39.27;22.47;;;1.80;99.90;;;;;;10385371;28;20228;-81
2022/03/20 02:47:44;;;;;;;35.27;22.20;;;1.60;99.90;;;;;;10398668;28;20194;-81
2022/03/20 02:53:14;;;;;;;36.50;22.27;;;1.50;99.90;;;;;;10371440;28;20201;-80
2022/03/20 02:58:36;;;;;;;41.10;22.40;;;1.40;99.90;;;;;;10390500;28;20215;-81
2022/03/20 03:03:59;;;;;;;38.63;23.63;;;1.40;99.90;;;;;;10390810;28;20211;-81
2022/03/20 03:15:19;;;;;;;32.40;19.50;;;1.40;99.90;;;;;;10397073;28;20428;-79
2022/03/20 03:20:42;;;;;;;38.00;22.57;;;1.30;99.90;;;;;;10397686;28;20454;-79
2022/03/20 03:26:07;;;;;;;36.90;21.17;;;1.20;99.90;;;;;;10383443;28;20488;-79
2022/03/20 03:31:28;;;;;;;36.90;21.77;;;1.30;99.90;;;;;;10383210;28;20519;-82
2022/03/20 03:36:50;;;;;;;36.00;21.10;;;1.20;99.90;;;;;;10383079;28;20560;-79
2022/03/20 03:42:14;;;;;;;32.07;20.03;;;1.20;99.90;;;;;;10396292;28;20423;-81
2022/03/20 03:47:36;;;;;;;34.20;20.57;;;1.10;99.90;;;;;;10396784;28;20196;-79
2022/03/20 03:52:59;;;;;;;34.63;20.63;;;0.90;99.90;;;;;;10382293;28;20248;-81
2022/03/20 03:58:21;;;;;;;32.13;20.40;;;0.90;99.90;;;;;;10377479;28;20507;-79
2022/03/20 04:03:43;;;;;;;37.33;20.33;;;0.80;99.90;;;;;;10391105;28;20198;-81
2022/03/20 04:09:06;;;;;;;29.37;18.83;;;0.70;99.90;;;;;;10395777;28;20226;-79
2022/03/20 04:14:29;;;;;;;29.27;18.40;;;0.60;99.90;;;;;;10413597;28;20552;-81
2022/03/20 04:19:51;;;;;;;30.93;19.13;;;0.60;99.90;;;;;;10381639;28;20232;-81
2022/03/20 04:25:13;;;;;;;31.67;17.93;;;0.60;99.90;;;;;;10381662;28;20205;-80
2022/03/20 04:30:36;;;;;;;35.17;19.10;;;0.50;99.90;;;;;;10381400;28;20209;-81
2022/03/20 04:35:58;;;;;;;32.63;19.63;;;0.50;99.90;;;;;;10367762;28;20226;-81
2022/03/20 04:41:20;;;;;;;32.50;19.53;;;0.50;99.90;;;;;;10380904;28;20245;-80
2022/03/20 04:46:42;;;;;;;39.70;19.43;;;0.50;99.90;;;;;;10380850;28;20193;-81
2022/03/20 05:03:32;;;;;;;37.00;20.87;;;0.30;99.90;;;;;;10331909;28;20312;-80
2022/03/20 05:13:19;;;;;;;42.57;21.20;;;0.10;99.90;;;;;;10348604;28;20257;-81
2022/03/20 05:14:35;;;;;;;33.63;18.93;;;0.10;99.90;;;;;;10350825;28;20211;-79
2022/03/20 05:19:57;;;;;;;31.63;18.00;;;0.20;99.90;;;;;;10337574;28;20532;-79
2022/03/20 05:25:20;;;;;;;27.53;17.33;;;0.20;99.90;;;;;;10327543;28;20232;-79
2022/03/20 05:30:44;;;;;;;33.47;19.30;;;0.10;99.90;;;;;;10331686;28;20210;-79
2022/03/20 05:36:06;;;;;;;33.63;18.93;;;0.10;99.90;;;;;;10374114;28;20195;-81
2022/03/20 05:41:47;;;;;;;40.47;22.63;;;0.10;99.90;;;;;;10387670;28;20567;-79
2022/03/20 05:47:10;;;;;;;49.63;24.90;;;0.10;99.90;;;;;;10346474;28;20189;-79
2022/03/20 05:52:32;;;;;;;44.13;24.23;;;0.30;99.90;;;;;;10396989;28;20209;-78
2022/03/20 05:58:04;;;;;;;47.70;24.93;;;0.30;99.90;;;;;;10392351;28;20383;-79
2022/03/20 06:03:25;;;;;;;40.63;23.13;;;0.50;99.90;;;;;;10397961;28;20242;-79
2022/03/20 06:08:49;;;;;;;48.33;24.10;;;0.60;99.90;;;;;;10400234;28;20194;-79
2022/03/20 06:14:15;;;;;;;47.17;25.40;;;0.60;99.90;;;;;;10399411;28;20296;-79
2022/03/20 06:19:38;;;;;;;40.07;22.60;;;0.70;99.90;;;;;;10386386;28;20532;-80
2022/03/20 06:25:08;;;;;;;50.00;25.23;;;0.70;99.90;;;;;;10372036;28;20494;-80
2022/03/20 06:30:33;;;;;;;44.10;23.27;;;0.70;99.90;;;;;;10385575;28;20211;-80
2022/03/20 06:35:55;;;;;;;37.97;21.27;;;0.90;99.90;;;;;;10398334;28;20192;-80
2022/03/20 06:41:18;;;;;;;47.03;25.70;;;1.20;99.90;;;;;;10400064;28;20557;-80
2022/03/20 06:46:40;;;;;;;51.90;27.70;;;1.30;99.90;;;;;;10385075;28;20246;-80
2022/03/20 06:52:02;;;;;;;59.67;33.67;;;1.60;99.90;;;;;;10384271;28;20226;-79
2022/03/20 06:57:28;;;;;;;46.97;27.23;;;1.80;99.90;;;;;;10373953;28;20386;-79
2022/03/20 07:02:50;;;;;;;45.00;25.33;;;2.00;99.90;;;;;;10414541;28;20443;-80
2022/03/20 07:08:12;;;;;;;50.33;26.47;;;2.70;99.90;;;;;;10411298;28;20447;-80
2022/03/20 07:13:50;;;;;;;41.20;22.97;;;4.20;99.90;;;;;;10397527;28;20483;-80
2022/03/20 07:19:13;;;;;;;40.70;24.63;;;;;;;;;;10398400;28;20204;-80
2022/03/20 07:24:36;;;;;;;33.47;20.40;;;7.60;99.90;;;;;;10370105;28;20299;-80
2022/03/20 07:29:58;;;;;;;28.05;19.10;;;8.50;99.90;;;;;;10383597;28;20254;-81
2022/03/20 07:35:20;;;;;;;32.33;21.02;;;9.30;96.30;;;;;;10382889;28;20212;-81
2022/03/20 07:40:42;;;;;;;36.92;20.10;;;10.20;94.40;;;;;;10396787;28;20239;-81
2022/03/20 07:46:06;;;;;;;27.63;19.13;;;10.80;88.50;;;;;;10396329;28;20219;-81
2022/03/20 07:51:30;;;;;;;23.90;17.92;;;11.30;85.20;;;;;;10396330;28;20204;-81
2022/03/20 07:56:52;;;;;;;28.15;18.92;;;11.80;73.10;;;;;;10403994;28;20260;-81
2022/03/20 08:02:13;;;;;;;21.92;15.65;;;11.90;75.20;;;;;;10403003;28;20224;-81
2022/03/20 08:07:39;;;;;;;20.20;14.68;;;11.80;76.30;;;;;;10395578;28;20201;-80
2022/03/20 08:13:01;;;;;;;18.73;13.98;;;12.10;73.80;;;;;;10396096;28;20248;-81
2022/03/20 08:18:23;;;;;;;20.38;14.98;;;;;;;;;;10395591;28;20197;-80
2022/03/20 08:23:53;;;;;;;22.17;15.32;;;13.10;53.20;;;;;;10382379;28;20308;-81
2022/03/20 08:29:15;;;;;;;23.58;16.92;;;13.40;53.10;;;;;;10381430;28;20200;-81
2022/03/20 08:34:37;;;;;;;25.73;19.00;;;;;;;;;;10381073;28;20284;-81
2022/03/20 08:39:59;;;;;;;31.85;19.42;;;13.80;40.60;;;;;;10394741;28;20240;-81
2022/03/20 08:45:24;;;;;;;28.98;19.88;;;13.90;36.70;;;;;;10352063;28;20359;-81
2022/03/20 08:50:48;;;;;;;28.80;20.13;;;14.80;35.50;;;;;;10394987;28;20424;-80
2022/03/20 08:56:15;;;;;;;25.67;17.60;;;;;;;;;;10368403;28;20204;-80
2022/03/20 09:01:37;;;;;;;33.95;23.90;;;16.00;28.90;;;;;;10415116;28;20220;-80
2022/03/20 09:06:59;;;;;;;30.23;20.30;;;16.40;26.80;;;;;;10402502;28;20495;-81
2022/03/20 09:12:21;;;;;;;26.02;16.40;;;16.60;24.60;;;;;;10416086;28;20285;-81
2022/03/20 09:23:27;;;;;;;25.85;17.30;;;17.50;22.60;;;;;;10401872;28;20252;-80
2022/03/20 09:28:49;;;;;;;19.15;15.45;;;17.60;22.20;;;;;;10374514;28;20197;-81
2022/03/20 09:34:15;;;;;;;19.95;15.57;;;17.80;21.60;;;;;;10388187;28;20201;-79
2022/03/20 09:39:37;;;;;;;27.00;17.00;;;17.40;20.10;;;;;;10373998;28;20221;-81
2022/03/20 09:44:59;;;;;;;19.27;15.52;;;17.30;18.30;;;;;;10387116;28;20280;-81
2022/03/20 09:50:24;;;;;;;23.33;15.68;;;17.40;18.80;;;;;;10387357;28;20220;-81
2022/03/20 09:55:46;;;;;;;25.27;15.23;;;17.70;17.60;;;;;;10368899;28;20206;-81
2022/03/20 10:01:08;;;;;;;19.35;14.43;;;17.70;17.50;;;;;;10439798;28;20312;-80
2022/03/20 10:06:35;;;;;;;20.05;14.45;;;18.30;16.60;;;;;;10419326;28;20398;-81
2022/03/20 10:12:00;;;;;;;18.15;13.35;;;17.90;16.80;;;;;;10426617;28;20233;-82
2022/03/20 10:17:22;;;;;;;20.40;12.35;;;18.00;16.10;;;;;;10403059;28;20195;-81
2022/03/20 10:22:44;;;;;;;15.52;11.30;;;18.20;13.80;;;;;;10399509;28;20235;-83
2022/03/20 10:28:06;;;;;;;17.92;11.70;;;18.20;14.00;;;;;;10399108;28;20268;-83
2022/03/20 10:33:27;;;;;;;14.75;10.95;;;17.60;12.70;;;;;;10399381;28;20196;-81
2022/03/20 10:38:50;;;;;;;17.13;9.77;;;18.00;11.60;;;;;;10399184;28;20204;-83
2022/03/20 10:44:23;;;;;;;19.38;11.00;;;18.80;10.80;;;;;;10411703;28;20224;-82
2022/03/20 10:50:21;;;;;;;19.05;10.60;;;18.80;10.30;;;;;;10385268;28;20211;-81
2022/03/20 10:55:44;;;;;;;21.52;12.43;;;18.80;9.90;;;;;;10338293;28;20297;-82
2022/03/20 11:01:08;;;;;;;26.27;13.77;;;18.20;10.30;;;;;;10311577;28;20237;-82
2022/03/20 11:06:31;;;;;;;26.40;14.45;;;18.30;10.40;;;;;;10325040;28;20217;-80
2022/03/20 11:11:58;;;;;;;19.70;13.30;;;19.10;9.80;;;;;;10354198;28;20272;-81
2022/03/20 11:17:24;;;;;;;35.90;20.95;;;18.90;9.70;;;;;;10327119;28;20762;-81
2022/03/20 11:22:51;;;;;;;15.80;10.10;;;18.90;10.00;;;;;;10340429;28;20550;-80
2022/03/20 11:28:13;;;;;;;12.60;8.48;;;18.60;8.80;;;;;;10350022;28;20208;-81
2022/03/20 11:33:36;;;;;;;13.70;8.55;;;18.70;9.50;;;;;;10383232;28;20224;-81
2022/03/20 11:39:12;;;;;;;12.50;8.48;;;18.20;9.40;;;;;;10369485;28;20488;-81
2022/03/20 11:44:34;;;;;;;13.95;7.90;;;18.10;9.10;;;;;;10368839;28;20193;-81
2022/03/20 11:50:08;;;;;;;15.13;10.82;;;18.90;9.10;;;;;;10397602;28;20201;-80
2022/03/20 11:55:51;;;;;;;11.48;7.65;;;19.20;8.60;;;;;;10372398;28;20256;-81
2022/03/20 12:01:13;;;;;;;14.50;10.70;;;19.30;8.20;;;;;;10404903;28;20468;-82
2022/03/20 12:07:08;;;;;;;10.98;7.22;;;19.80;9.00;;;;;;10381838;28;20193;-81
2022/03/20 12:13:30;;;;;;;12.90;8.93;;;18.70;7.50;;;;;;10381071;28;20252;-82
2022/03/20 12:19:15;;;;;;;13.60;7.28;;;19.10;8.40;;;;;;10335959;28;20220;-81
2022/03/20 12:24:39;;;;;;;14.98;7.82;;;19.10;8.10;;;;;;10322148;28;20241;-81
2022/03/20 12:30:12;;;;;;;17.80;8.93;;;18.20;8.50;;;;;;10341720;28;20215;-81
2022/03/20 12:35:43;;;;;;;21.20;12.98;;;18.00;9.40;;;;;;10340527;28;20375;-82
2022/03/20 12:41:16;;;;;;;16.42;9.98;;;18.30;9.80;;;;;;10324661;28;20226;-82
2022/03/20 12:46:40;;;;;;;15.65;10.55;;;18.80;9.50;;;;;;10341500;28;20261;-81
2022/03/20 12:52:03;;;;;;;18.35;10.23;;;18.60;9.20;;;;;;10358776;28;20212;-82
2022/03/20 12:57:40;;;;;;;25.10;13.60;;;17.60;10.40;;;;;;10400330;28;20200;-81
2022/03/20 13:03:07;;;;;;;18.52;12.98;;;16.60;11.40;;;;;;10395243;28;20232;-82
2022/03/20 13:08:36;;;;;;;19.00;13.82;;;16.80;12.30;;;;;;10408538;28;20269;-81
2022/03/20 13:14:12;;;;;;;31.73;20.92;;;16.80;12.50;;;;;;10380193;28;20224;-82
2022/03/20 13:19:38;;;;;;;20.30;11.77;;;16.10;12.70;;;;;;10380395;28;20512;-82
2022/03/20 13:25:14;;;;;;;18.20;12.23;;;15.50;12.90;;;;;;10380266;28;20196;-81
2022/03/20 13:30:42;;;;;;;18.33;11.60;;;15.10;13.80;;;;;;10380533;28;20196;-80
2022/03/20 13:36:08;;;;;;;25.08;13.68;;;15.00;14.40;;;;;;10380121;28;20203;-81
2022/03/20 13:41:30;;;;;;;19.40;11.80;;;15.60;14.40;;;;;;10379999;28;20228;-81
2022/03/20 13:46:52;;;;;;;20.42;14.95;;;15.50;14.20;;;;;;10391602;28;20193;-81
2022/03/20 13:52:35;;;;;;;18.17;12.55;;;16.10;14.10;;;;;;10373290;28;20200;-81
2022/03/20 13:58:00;;;;;;;16.17;11.68;;;16.30;13.80;;;;;;10412138;28;20203;-81
2022/03/20 14:03:26;;;;;;;15.88;10.77;;;15.80;13.70;;;;;;10384893;28;20239;-81
2022/03/20 14:08:51;;;;;;;18.63;11.77;;;15.50;14.30;;;;;;10386364;28;20385;-81
2022/03/20 14:14:13;;;;;;;20.25;10.93;;;15.50;14.00;;;;;;10418703;28;20285;-81
2022/03/20 14:19:49;;;;;;;16.85;11.18;;;14.90;14.10;;;;;;10386149;28;20204;-80
2022/03/20 14:25:28;;;;;;;21.55;12.10;;;14.20;14.50;;;;;;10399524;28;20220;-79
2022/03/20 14:42:34;;;;;;;14.35;8.68;;;13.00;14.20;;;;;;10384747;28;20234;-80
2022/03/20 14:47:56;;;;;;;13.38;9.02;;;12.70;14.20;;;;;;10384988;28;20312;-79
2022/03/20 14:53:31;;;;;;;13.35;9.48;;;12.50;14.40;;;;;;10384350;28;20201;-79
2022/03/20 14:58:54;;;;;;;18.35;8.63;;;12.50;14.30;;;;;;10391999;28;20200;-79
2022/03/20 15:04:19;;;;;;;17.38;8.85;;;12.40;14.40;;;;;;10374720;28;20543;-80
2022/03/20 15:15:22;;;;;;;13.52;7.85;;;12.50;14.40;;;;;;10389193;28;20428;-80
2022/03/20 15:20:44;;;;;;;12.13;8.43;;;12.30;14.40;;;;;;10383686;28;20226;-79
2022/03/20 15:26:07;;;;;;;11.63;8.15;;;12.30;14.70;;;;;;10398387;28;20209;-79
2022/03/20 15:31:31;;;;;;;14.85;8.25;;;12.20;14.60;;;;;;10397038;28;20275;-79
2022/03/20 15:36:54;;;;;;;14.83;8.53;;;12.00;14.40;;;;;;10396867;28;20264;-79
2022/03/20 15:42:16;;;;;;;13.53;7.00;;;11.80;15.00;;;;;;10383249;28;20244;-80
2022/03/20 15:47:38;;;;;;;11.20;7.63;;;11.60;15.00;;;;;;10396172;28;20244;-79
2022/03/20 15:53:00;;;;;;;12.60;7.43;;;11.50;15.20;;;;;;10368741;28;20537;-78
2022/03/20 15:58:26;;;;;;;15.87;8.57;;;11.40;15.40;;;;;;10373468;28;20204;-79
2022/03/20 16:03:49;;;;;;;12.40;8.13;;;11.20;15.60;;;;;;10409438;28;20256;-79
2022/03/20 16:09:11;;;;;;;17.77;9.97;;;11.20;16.20;;;;;;10394373;28;20189;-79
2022/03/20 16:14:53;;;;;;;18.67;12.27;;;;;;;;;;10381738;28;20200;-79
2022/03/20 16:20:15;;;;;;;19.97;12.03;;;11.00;17.00;;;;;;10381763;28;20208;-80
2022/03/20 16:31:19;;;;;;;28.03;15.40;;;10.70;17.30;;;;;;10394972;28;20187;-79
2022/03/20 16:36:41;;;;;;;37.17;17.07;;;10.50;17.80;;;;;;10395034;28;20450;-79
2022/03/20 16:42:04;;;;;;;33.97;18.10;;;10.50;17.90;;;;;;10395470;28;20493;-80
2022/03/20 16:47:26;;;;;;;30.07;15.00;;;10.40;18.10;;;;;;10381110;28;20437;-80
2022/03/20 16:52:48;;;;;;;25.30;14.47;;;10.20;18.00;;;;;;10380348;28;20199;-80
2022/03/20 16:58:11;;;;;;;34.50;14.10;;;10.10;18.00;;;;;;10393077;28;20572;-78
2022/03/20 17:03:33;;;;;;;33.37;16.50;;;10.00;18.40;;;;;;10404772;28;20236;-79
2022/03/20 17:08:55;;;;;;;40.23;21.83;;;9.80;18.60;;;;;;10393692;28;20220;-80
2022/03/20 17:14:17;;;;;;;52.33;26.43;;;9.70;18.70;;;;;;10393957;28;20244;-81
2022/03/20 17:19:39;;;;;;;57.80;30.37;;;9.60;19.00;;;;;;10417195;28;20200;-80
2022/03/20 17:25:00;;;;;;;97.87;37.70;;;9.40;19.20;;;;;;10388182;28;20534;-78
2022/03/20 17:30:23;;;;;;;46.47;24.23;;;9.20;21.40;;;;;;10401693;28;20200;-79
2022/03/20 17:35:45;;;;;;;36.40;20.80;;;;;;;;;;10420471;28;20498;-81
2022/03/20 17:41:07;;;;;;;32.30;20.17;;;8.70;25.50;;;;;;10374121;28;20464;-80
2022/03/20 17:46:30;;;;;;;31.10;19.43;;;8.50;27.30;;;;;;10387219;28;20199;-80
2022/03/20 17:51:56;;;;;;;49.13;26.43;;;8.40;28.60;;;;;;10401103;28;20517;-80
2022/03/20 17:57:18;;;;;;;43.10;24.37;;;8.20;29.90;;;;;;10396260;28;20513;-80
2022/03/20 18:08:25;;;;;;;61.17;33.33;;;7.90;32.30;;;;;;10400345;28;20211;-80
2022/03/20 18:13:51;;;;;;;46.80;25.30;;;7.80;34.80;;;;;;10372411;28;20429;-80
2022/03/20 18:19:14;;;;;;;41.10;22.83;;;7.60;37.00;;;;;;10372824;28;20748;-82
2022/03/20 18:24:36;;;;;;;42.97;23.20;;;7.40;40.00;;;;;;10386117;28;20231;-80
2022/03/20 18:29:59;;;;;;;48.70;24.50;;;7.30;42.10;;;;;;10398438;28;20195;-80
2022/03/20 18:35:23;;;;;;;55.90;26.93;;;7.20;44.30;;;;;;10399074;28;20506;-79
2022/03/20 18:40:46;;;;;;;74.90;32.10;;;7.10;46.40;;;;;;10399030;28;20242;-80
2022/03/20 18:46:08;;;;;;;60.30;28.63;;;7.10;47.80;;;;;;10385102;28;20277;-79
2022/03/20 18:51:30;;;;;;;70.43;32.77;;;6.90;50.00;;;;;;10398965;28;20197;-80
2022/03/20 18:56:52;;;;;;;58.20;27.10;;;6.90;52.50;;;;;;10382086;28;20225;-80
2022/03/20 19:02:17;;;;;;;61.20;27.90;;;6.70;55.50;;;;;;10405416;28;20226;-80
2022/03/20 19:07:40;;;;;;;69.07;33.67;;;6.60;57.80;;;;;;10399023;28;20233;-79
2022/03/20 19:13:03;;;;;;;87.60;41.03;;;6.50;59.00;;;;;;10384077;28;20229;-80
2022/03/20 19:18:25;;;;;;;72.80;37.37;;;6.40;61.00;;;;;;10397966;28;20264;-80
2022/03/20 19:23:48;;;;;;;59.63;31.73;;;6.40;63.00;;;;;;10383472;28;20232;-80
2022/03/20 19:29:11;;;;;;;69.17;35.87;;;6.40;64.50;;;;;;10397539;28;20198;-80
2022/03/20 19:40:14;;;;;;;88.77;49.10;;;6.20;68.90;;;;;;10396428;28;20231;-79
2022/03/20 19:45:36;;;;;;;69.07;37.90;;;6.10;71.70;;;;;;10383045;28;20197;-79
2022/03/20 19:50:59;;;;;;;65.00;35.20;;;6.10;72.90;;;;;;10369094;28;20202;-79
2022/03/20 19:56:21;;;;;;;67.07;35.67;;;6.00;76.60;;;;;;10357526;28;20205;-79
2022/03/20 20:01:43;;;;;;;68.10;37.97;;;6.00;78.90;;;;;;10356431;28;20231;-79
2022/03/20 20:07:08;;;;;;;61.47;36.03;;;;;;;;;;10397026;28;20264;-79
2022/03/20 20:12:30;;;;;;;74.33;40.60;;;5.70;82.70;;;;;;10381968;28;20286;-80
2022/03/20 20:17:52;;;;;;;83.90;42.47;;;5.60;86.80;;;;;;10368301;28;20200;-79
2022/03/20 20:23:14;;;;;;;80.03;43.13;;;5.60;88.20;;;;;;10381770;28;20227;-78
2022/03/20 20:28:36;;;;;;;85.27;42.03;;;5.50;90.90;;;;;;10395583;28;20196;-78
2022/03/20 20:33:58;;;;;;;91.57;48.50;;;5.40;92.10;;;;;;10340735;28;20204;-79
2022/03/20 20:39:20;;;;;;;96.83;48.57;;;5.30;93.00;;;;;;10387135;28;20232;-80
2022/03/20 20:44:42;;;;;;;97.50;50.27;;;5.30;93.90;;;;;;10356854;28;20232;-80
2022/03/20 20:50:04;;;;;;;100.67;49.20;;;5.20;94.60;;;;;;10367667;28;20202;-80
2022/03/20 20:55:27;;;;;;;97.63;49.27;;;5.10;95.20;;;;;;10414812;28;20255;-80
2022/03/20 21:00:49;;;;;;;100.40;50.63;;;5.00;96.00;;;;;;10415346;28;20199;-81
2022/03/20 21:06:11;;;;;;;105.27;52.50;;;4.90;96.80;;;;;;10403014;28;20425;-81
2022/03/20 21:11:33;;;;;;;131.97;61.13;;;4.80;97.40;;;;;;10388807;28;20247;-81
2022/03/20 21:16:57;;;;;;;136.77;64.90;;;4.70;98.10;;;;;;10389181;28;20199;-81
2022/03/20 21:22:23;;;;;;;137.17;66.60;;;4.50;99.10;;;;;;10375156;28;20230;-81
2022/03/20 21:27:45;;;;;;;143.70;70.17;;;4.30;99.90;;;;;;10403042;28;20473;-81
2022/03/20 21:33:08;;;;;;;142.23;72.60;;;4.20;99.90;;;;;;10374378;28;20492;-81
2022/03/20 21:38:30;;;;;;;134.97;69.57;;;4.10;99.90;;;;;;10388197;28;20199;-81
2022/03/20 21:43:52;;;;;;;132.67;68.33;;;4.10;99.90;;;;;;10374196;28;20231;-81
2022/03/20 21:49:14;;;;;;;128.47;65.97;;;4.00;99.90;;;;;;10401122;28;20230;-81
2022/03/20 21:54:36;;;;;;;115.07;64.00;;;4.00;99.90;;;;;;10387043;28;20230;-81
2022/03/20 21:59:58;;;;;;;124.47;67.73;;;3.80;99.90;;;;;;10410789;28;20283;-81
2022/03/20 22:05:25;;;;;;;132.83;72.03;;;3.80;99.90;;;;;;10400464;28;20229;-81
2022/03/20 22:10:48;;;;;;;138.83;76.47;;;3.60;99.90;;;;;;10400451;28;20239;-81
2022/03/20 22:16:10;;;;;;;133.37;74.67;;;3.60;99.90;;;;;;10414602;28;20223;-81
2022/03/20 22:21:32;;;;;;;133.00;70.80;;;3.60;99.90;;;;;;10413463;28;20520;-82
2022/03/20 22:26:54;;;;;;;115.53;63.47;;;3.50;99.90;;;;;;10400047;28;20196;-81
2022/03/20 22:32:16;;;;;;;109.30;61.23;;;3.40;99.90;;;;;;10418335;28;20205;-81
2022/03/20 22:37:40;;;;;;;122.53;64.30;;;3.30;99.90;;;;;;10372622;28;20269;-81
2022/03/20 22:43:03;;;;;;;106.27;57.03;;;3.30;99.90;;;;;;10372380;28;20233;-81
2022/03/20 22:54:08;;;;;;;90.97;50.03;;;3.30;99.90;;;;;;10398603;28;20206;-80
2022/03/20 22:59:31;;;;;;;91.63;48.07;;;3.20;99.90;;;;;;10428924;28;20285;-80
2022/03/20 23:04:53;;;;;;;87.60;46.73;;;3.20;99.90;;;;;;10357894;28;20225;-79
2022/03/20 23:10:15;;;;;;;78.47;45.37;;;3.30;99.90;;;;;;10330967;28;20241;-79
2022/03/20 23:15:38;;;;;;;82.70;44.43;;;3.10;99.90;;;;;;10384466;28;20248;-80
2022/03/20 23:20:59;;;;;;;74.50;41.67;;;3.10;99.90;;;;;;10357049;28;20200;-79
2022/03/20 23:26:25;;;;;;;84.57;45.00;;;3.10;99.90;;;;;;10370528;28;20230;-80
2022/03/20 23:31:47;;;;;;;90.80;46.03;;;3.00;99.90;;;;;;10376101;28;20189;-81
2022/03/20 23:37:09;;;;;;;97.13;48.27;;;2.90;99.90;;;;;;10397429;28;20198;-80
2022/03/20 23:48:13;;;;;;;105.93;49.87;;;2.90;99.90;;;;;;10397884;28;20193;-79
2022/03/20 23:53:37;;;;;;;98.83;49.23;;;2.80;99.90;;;;;;10385501;28;20447;-80
2022/03/20 23:58:59;;;;;;;103.50;51.77;;;2.80;99.90;;;;;;10404597;28;20200;-80
